Time;durP1;ratioP1;P1;durP2;ratioP2;P2;SDS_P1;SDS_P2;PMS_P1;PMS_P2;Temp;Humidity;BMP_temperature;BMP_pressure;BME280_temperature;BME280_humidity;BME280_pressure;Samples;Min_cycle;Max_cycle;Signal;HPM_P1;HPM_P2
2022/10/22 00:01:15;;;;;;;16.27;10.82;;;12.80;99.90;;;;;;5072390;28;20040;-47
2022/10/22 00:03:41;;;;;;;17.35;11.00;;;12.60;99.90;;;;;;5070914;28;20394;-47
2022/10/22 00:06:07;;;;;;;15.80;10.85;;;12.80;99.90;;;;;;5070917;28;20048;-48
2022/10/22 00:08:33;;;;;;;16.08;10.48;;;12.50;99.90;;;;;;5071873;28;20044;-51
2022/10/22 00:10:58;;;;;;;15.77;10.30;;;12.50;99.90;;;;;;5072122;28;20370;-48
2022/10/22 00:13:24;;;;;;;18.40;10.80;;;12.90;99.90;;;;;;5070471;28;20044;-51
2022/10/22 00:15:50;;;;;;;17.05;10.88;;;12.70;99.90;;;;;;5072311;28;20053;-47
2022/10/22 00:18:15;;;;;;;19.50;11.55;;;13.00;99.90;;;;;;5072038;28;20048;-48
2022/10/22 00:20:42;;;;;;;17.30;11.10;;;12.50;99.90;;;;;;5072317;28;20047;-48
2022/10/22 00:23:07;;;;;;;18.23;10.52;;;12.90;99.90;;;;;;5072347;28;20087;-48
2022/10/22 00:25:34;;;;;;;17.33;10.75;;;12.90;99.90;;;;;;5071889;28;20141;-47
2022/10/22 00:28:01;;;;;;;17.40;11.05;;;12.90;99.90;;;;;;5072128;28;20036;-47
2022/10/22 00:30:27;;;;;;;16.27;10.95;;;12.90;99.90;;;;;;5072019;28;20048;-48
2022/10/22 00:32:52;;;;;;;16.35;10.95;;;12.30;99.90;;;;;;5071975;28;20097;-47
2022/10/22 00:35:18;;;;;;;16.92;10.23;;;12.70;99.90;;;;;;5071850;28;20610;-48
2022/10/22 00:37:44;;;;;;;18.83;10.18;;;12.70;99.90;;;;;;5071771;28;20037;-47
2022/10/22 00:40:10;;;;;;;16.48;10.93;;;12.30;99.90;;;;;;5087487;28;20456;-48
2022/10/22 00:42:36;;;;;;;16.55;10.05;;;12.30;99.90;;;;;;5092097;28;20040;-48
2022/10/22 00:45:05;;;;;;;13.07;9.55;;;12.30;99.90;;;;;;5091982;28;20388;-48
2022/10/22 00:47:47;;;;;;;17.05;9.93;;;12.30;99.90;;;;;;5092054;28;20083;-48
2022/10/22 00:50:24;;;;;;;15.35;9.93;;;12.70;99.90;;;;;;5091831;28;20044;-47
2022/10/22 00:52:50;;;;;;;15.40;9.40;;;12.30;99.90;;;;;;5092168;28;20040;-49
2022/10/22 00:55:17;;;;;;;15.00;9.98;;;12.70;99.90;;;;;;5092114;28;20054;-48
2022/10/22 00:57:43;;;;;;;13.55;9.27;;;12.50;99.90;;;;;;5092075;28;20047;-51
2022/10/22 01:00:09;;;;;;;14.05;9.48;;;12.40;99.90;;;;;;5091780;28;20047;-47
2022/10/22 01:02:35;;;;;;;14.07;9.25;;;12.60;99.90;;;;;;5091810;28;20114;-48
2022/10/22 01:05:02;;;;;;;14.27;9.10;;;12.40;99.90;;;;;;5091801;28;20072;-48
2022/10/22 01:07:28;;;;;;;16.42;9.48;;;12.50;99.90;;;;;;5091939;28;20471;-49
2022/10/22 01:10:14;;;;;;;15.85;9.40;;;12.20;99.90;;;;;;5091991;28;20452;-48
2022/10/22 01:13:19;;;;;;;13.00;9.02;;;12.20;99.90;;;;;;5092062;28;20040;-49
2022/10/22 01:16:11;;;;;;;14.75;9.40;;;12.20;99.90;;;;;;5080146;28;20184;-50
2022/10/22 01:18:43;;;;;;;14.10;9.07;;;12.30;99.90;;;;;;5091544;28;20553;-51
2022/10/22 01:21:27;;;;;;;14.38;9.10;;;12.30;99.90;;;;;;5091901;28;20047;-52
2022/10/22 01:24:23;;;;;;;13.40;8.40;;;12.20;99.90;;;;;;5091525;28;20048;-47
2022/10/22 01:27:13;;;;;;;15.50;9.55;;;12.10;99.90;;;;;;5095486;28;20097;-48
2022/10/22 01:29:48;;;;;;;15.10;9.40;;;12.20;99.90;;;;;;5095148;28;20097;-47
2022/10/22 01:32:21;;;;;;;13.93;8.32;;;12.50;99.90;;;;;;5095076;28;20051;-52
2022/10/22 01:34:52;;;;;;;12.88;8.43;;;12.50;99.90;;;;;;5095015;28;20484;-48
2022/10/22 01:37:21;;;;;;;16.33;9.23;;;12.10;99.90;;;;;;5095114;28;20126;-48
2022/10/22 01:39:50;;;;;;;14.57;8.75;;;12.30;99.90;;;;;;5082364;28;20032;-47
2022/10/22 01:42:16;;;;;;;14.18;8.48;;;12.20;99.90;;;;;;5075001;28;20064;-48
2022/10/22 01:44:42;;;;;;;14.85;9.75;;;12.60;99.90;;;;;;5074542;28;20382;-48
2022/10/22 01:47:22;;;;;;;13.93;8.57;;;12.30;99.90;;;;;;5074750;28;20101;-47
2022/10/22 01:50:07;;;;;;;11.95;7.97;;;12.70;99.90;;;;;;5074529;28;20098;-47
2022/10/22 01:52:54;;;;;;;16.55;8.57;;;12.70;99.90;;;;;;5074459;28;20119;-48
2022/10/22 01:55:51;;;;;;;12.15;8.15;;;12.30;99.90;;;;;;5074517;28;20377;-48
2022/10/22 01:58:33;;;;;;;12.68;7.90;;;12.60;99.90;;;;;;5074514;28;20397;-48
2022/10/22 02:01:08;;;;;;;15.52;8.13;;;12.60;99.90;;;;;;5074250;28;20075;-47
2022/10/22 02:03:43;;;;;;;13.57;8.43;;;12.70;99.90;;;;;;5074737;28;20048;-47
2022/10/22 02:06:17;;;;;;;14.07;8.02;;;12.30;99.90;;;;;;5074213;28;20044;-47
2022/10/22 02:08:45;;;;;;;13.23;7.85;;;12.50;99.90;;;;;;5074249;28;20047;-47
2022/10/22 02:11:12;;;;;;;12.80;7.40;;;12.40;99.90;;;;;;5074090;28;20048;-48
2022/10/22 02:13:47;;;;;;;13.40;7.85;;;12.70;99.90;;;;;;5074019;28;20507;-46
2022/10/22 02:16:30;;;;;;;11.57;6.28;;;12.30;99.90;;;;;;5072773;28;20112;-48
2022/10/22 02:19:00;;;;;;;10.73;7.47;;;12.60;99.90;;;;;;5073938;28;20056;-48
2022/10/22 02:21:27;;;;;;;26.88;8.93;;;12.20;99.90;;;;;;5074222;28;20052;-47
2022/10/22 02:23:53;;;;;;;14.65;8.30;;;12.60;99.90;;;;;;5074216;28;20051;-48
2022/10/22 02:26:33;;;;;;;16.48;7.20;;;12.70;99.90;;;;;;5074176;28;20041;-47
2022/10/22 02:29:10;;;;;;;20.85;8.55;;;12.60;99.90;;;;;;5074013;28;20079;-46
2022/10/22 02:31:40;;;;;;;13.75;8.02;;;12.60;99.90;;;;;;5073885;28;20497;-48
2022/10/22 02:34:13;;;;;;;25.88;8.13;;;12.60;99.90;;;;;;5073795;28;20036;-49
2022/10/22 02:36:42;;;;;;;13.65;6.70;;;12.40;99.90;;;;;;5073383;28;20080;-48
2022/10/22 02:39:09;;;;;;;14.93;7.05;;;12.80;99.90;;;;;;5081170;28;20039;-49
2022/10/22 02:41:36;;;;;;;16.45;7.43;;;12.70;99.90;;;;;;5092837;28;20048;-49
2022/10/22 02:44:06;;;;;;;13.52;7.07;;;12.50;99.90;;;;;;5092567;28;20177;-48
2022/10/22 02:46:31;;;;;;;12.02;7.55;;;12.60;99.90;;;;;;5093699;28;20051;-48
2022/10/22 02:48:57;;;;;;;11.73;7.25;;;12.90;99.90;;;;;;5094081;28;20052;-51
2022/10/22 02:51:23;;;;;;;15.75;7.53;;;12.90;99.90;;;;;;5093451;28;20040;-52
2022/10/22 02:53:48;;;;;;;14.38;7.95;;;12.80;99.90;;;;;;5093618;28;20040;-47
2022/10/22 02:56:14;;;;;;;14.68;8.13;;;12.50;99.90;;;;;;5093590;28;20062;-49
2022/10/22 02:58:40;;;;;;;13.50;8.00;;;12.50;99.90;;;;;;5090475;28;20078;-48
2022/10/22 03:01:05;;;;;;;14.98;7.72;;;13.00;99.90;;;;;;5073473;28;20040;-48
2022/10/22 03:03:31;;;;;;;14.45;8.07;;;12.80;99.90;;;;;;5071780;28;20438;-48
2022/10/22 03:05:57;;;;;;;15.30;7.35;;;12.70;99.90;;;;;;5073047;28;20110;-51
2022/10/22 03:08:22;;;;;;;12.07;7.22;;;12.70;99.90;;;;;;5073193;28;20040;-47
2022/10/22 03:10:48;;;;;;;13.85;6.93;;;12.80;99.90;;;;;;5073341;28;20781;-48
2022/10/22 03:13:13;;;;;;;14.25;7.32;;;12.80;99.90;;;;;;5072933;28;20075;-47
2022/10/22 03:15:39;;;;;;;16.40;7.65;;;12.70;99.90;;;;;;5072922;28;20394;-48
2022/10/22 03:18:05;;;;;;;11.32;6.95;;;12.80;99.90;;;;;;5072956;28;20127;-48
2022/10/22 03:20:30;;;;;;;15.70;7.65;;;12.70;99.90;;;;;;5073126;28;20072;-47
2022/10/22 03:22:56;;;;;;;14.13;8.57;;;12.70;99.90;;;;;;5072735;28;20476;-48
2022/10/22 03:25:26;;;;;;;14.75;8.52;;;12.40;99.90;;;;;;5073033;28;20094;-50
2022/10/22 03:27:53;;;;;;;14.90;8.57;;;12.40;99.90;;;;;;5072808;28;20370;-49
2022/10/22 03:30:19;;;;;;;14.75;8.23;;;12.80;99.90;;;;;;5072699;28;20115;-50
2022/10/22 03:32:45;;;;;;;12.98;7.70;;;12.30;99.90;;;;;;5072870;28;20040;-48
2022/10/22 03:35:10;;;;;;;17.50;8.63;;;12.80;99.90;;;;;;5072667;28;20392;-49
2022/10/22 03:37:36;;;;;;;17.13;8.50;;;12.50;99.90;;;;;;5072511;28;20620;-47
2022/10/22 03:40:04;;;;;;;17.08;7.82;;;12.40;99.90;;;;;;5087104;28;20058;-49
2022/10/22 03:42:30;;;;;;;14.65;8.57;;;12.50;99.90;;;;;;5091447;28;20046;-52
2022/10/22 03:44:56;;;;;;;14.40;7.38;;;12.30;99.90;;;;;;5092667;28;20047;-46
2022/10/22 03:47:23;;;;;;;13.25;7.57;;;12.40;99.90;;;;;;5091997;28;20502;-48
2022/10/22 03:49:50;;;;;;;15.48;8.35;;;12.70;99.90;;;;;;5074348;28;20182;-47
2022/10/22 03:52:16;;;;;;;15.88;8.77;;;12.40;99.90;;;;;;5092447;28;20499;-48
2022/10/22 03:54:42;;;;;;;14.25;7.45;;;12.40;99.90;;;;;;5092787;28;20055;-48
2022/10/22 03:57:08;;;;;;;16.33;8.20;;;12.30;99.90;;;;;;5092637;28;20040;-48
2022/10/22 03:59:37;;;;;;;17.27;7.55;;;12.70;99.90;;;;;;5092369;28;20032;-48
2022/10/22 04:02:03;;;;;;;14.45;7.93;;;12.40;99.90;;;;;;5091052;28;20040;-47
2022/10/22 04:04:28;;;;;;;15.60;7.97;;;12.50;99.90;;;;;;5092535;28;20036;-48
2022/10/22 04:06:54;;;;;;;14.82;8.82;;;12.20;99.90;;;;;;5092503;28;20040;-48
2022/10/22 04:09:20;;;;;;;14.93;8.60;;;12.50;99.90;;;;;;5092379;28;20043;-48
2022/10/22 04:11:45;;;;;;;14.25;8.20;;;12.50;99.90;;;;;;5092591;28;20123;-48
2022/10/22 04:14:11;;;;;;;17.10;9.20;;;12.60;99.90;;;;;;5092346;28;20464;-47
2022/10/22 04:16:39;;;;;;;16.48;9.35;;;12.60;99.90;;;;;;5092091;28;20084;-47
2022/10/22 04:19:05;;;;;;;16.33;9.43;;;12.20;99.90;;;;;;5092105;28;20097;-47
2022/10/22 04:21:31;;;;;;;12.90;8.82;;;12.60;99.90;;;;;;5092389;28;20032;-49
2022/10/22 04:23:57;;;;;;;13.82;8.15;;;12.30;99.90;;;;;;5090771;28;20043;-48
2022/10/22 04:26:23;;;;;;;14.15;7.93;;;12.30;99.90;;;;;;5092006;28;20043;-47
2022/10/22 04:28:50;;;;;;;13.20;8.38;;;12.00;99.90;;;;;;5092097;28;20044;-49
2022/10/22 04:31:21;;;;;;;16.23;8.65;;;12.50;99.90;;;;;;5092065;28;20040;-50
2022/10/22 04:33:50;;;;;;;14.43;8.45;;;12.00;99.90;;;;;;5092152;28;20047;-48
2022/10/22 04:36:17;;;;;;;19.92;9.68;;;12.00;99.90;;;;;;5092236;28;20051;-48
2022/10/22 04:38:45;;;;;;;14.02;7.63;;;12.40;99.90;;;;;;5088207;28;20067;-47
2022/10/22 04:41:13;;;;;;;14.00;7.40;;;12.00;99.90;;;;;;5070951;28;20376;-47
2022/10/22 04:43:40;;;;;;;12.90;7.07;;;12.00;99.90;;;;;;5071756;28;20111;-48
2022/10/22 04:46:07;;;;;;;15.57;7.80;;;12.00;99.90;;;;;;5071993;28;20064;-49
2022/10/22 04:48:35;;;;;;;13.60;7.60;;;12.00;99.90;;;;;;5071906;28;20067;-48
2022/10/22 04:51:00;;;;;;;16.45;7.85;;;12.10;99.90;;;;;;5071655;28;20051;-48
2022/10/22 04:53:26;;;;;;;15.07;7.72;;;12.00;99.90;;;;;;5072007;28;20029;-48
2022/10/22 04:55:53;;;;;;;12.75;6.43;;;12.40;99.90;;;;;;5071687;28;20053;-47
2022/10/22 04:58:18;;;;;;;16.55;8.65;;;12.00;99.90;;;;;;5070372;28;20428;-48
2022/10/22 05:00:44;;;;;;;16.08;7.90;;;12.30;99.90;;;;;;5093334;28;20036;-48
2022/10/22 05:03:10;;;;;;;15.60;8.13;;;12.40;99.90;;;;;;5095733;28;20036;-48
2022/10/22 05:05:35;;;;;;;16.88;8.18;;;12.00;99.90;;;;;;5095678;28;20043;-47
2022/10/22 05:08:01;;;;;;;17.25;8.40;;;12.40;99.90;;;;;;5077516;28;20043;-48
2022/10/22 05:10:27;;;;;;;14.65;7.82;;;12.10;99.90;;;;;;5095610;28;20047;-49
2022/10/22 05:12:52;;;;;;;19.38;8.30;;;12.20;99.90;;;;;;5094602;28;20044;-50
2022/10/22 05:15:18;;;;;;;16.98;8.27;;;12.20;99.90;;;;;;5094429;28;20071;-48
2022/10/22 05:17:44;;;;;;;14.88;8.85;;;12.20;99.90;;;;;;5094461;28;20055;-49
2022/10/22 05:20:10;;;;;;;13.35;7.78;;;12.10;99.90;;;;;;5093064;28;20047;-47
2022/10/22 05:22:36;;;;;;;15.95;8.73;;;12.50;99.90;;;;;;5094533;28;20048;-48
2022/10/22 05:25:01;;;;;;;15.93;9.43;;;12.50;99.90;;;;;;5087866;28;20035;-48
2022/10/22 05:27:27;;;;;;;14.52;8.75;;;12.10;99.90;;;;;;5087818;28;20062;-49
2022/10/22 05:29:52;;;;;;;15.45;8.77;;;12.10;99.90;;;;;;5092824;28;20101;-49
2022/10/22 05:32:18;;;;;;;16.17;8.20;;;12.40;99.90;;;;;;5082603;28;20547;-47
2022/10/22 05:34:44;;;;;;;15.57;8.32;;;12.10;99.90;;;;;;5082365;28;20047;-48
2022/10/22 05:37:09;;;;;;;15.98;8.70;;;12.40;99.90;;;;;;5084595;28;20480;-50
2022/10/22 05:39:35;;;;;;;17.55;9.45;;;12.40;99.90;;;;;;5083184;28;20068;-48
2022/10/22 05:42:04;;;;;;;16.15;8.48;;;12.40;99.90;;;;;;5077423;28;20043;-48
2022/10/22 05:44:30;;;;;;;17.13;7.90;;;12.10;99.90;;;;;;5081965;28;20044;-48
2022/10/22 05:46:55;;;;;;;14.50;7.95;;;12.30;99.90;;;;;;5094427;28;20048;-47
2022/10/22 05:49:21;;;;;;;16.38;8.23;;;12.00;99.90;;;;;;5094054;28;20048;-51
2022/10/22 05:51:47;;;;;;;12.82;6.95;;;12.20;99.90;;;;;;5094265;28;20036;-47
2022/10/22 05:54:18;;;;;;;14.48;8.02;;;12.20;99.90;;;;;;5094400;28;20044;-49
2022/10/22 05:56:44;;;;;;;14.05;8.30;;;12.40;99.90;;;;;;5093353;28;20044;-48
2022/10/22 05:59:10;;;;;;;16.85;7.78;;;12.50;99.90;;;;;;5094832;28;20047;-48
2022/10/22 06:01:38;;;;;;;16.65;7.88;;;12.30;99.90;;;;;;5094638;28;20053;-48
2022/10/22 06:04:06;;;;;;;12.52;7.40;;;12.00;99.90;;;;;;5094862;28;20043;-47
2022/10/22 06:06:33;;;;;;;15.98;7.95;;;12.30;99.90;;;;;;5094438;28;20443;-49
2022/10/22 06:09:03;;;;;;;14.63;8.18;;;12.40;99.90;;;;;;5094015;28;20476;-52
2022/10/22 06:11:29;;;;;;;16.08;7.07;;;12.50;99.90;;;;;;5093834;28;20108;-48
2022/10/22 06:13:55;;;;;;;14.93;8.00;;;12.40;99.90;;;;;;5094327;28;20047;-48
2022/10/22 06:16:20;;;;;;;15.65;8.20;;;12.50;99.90;;;;;;5094022;28;20086;-48
2022/10/22 06:18:46;;;;;;;14.05;7.72;;;12.20;99.90;;;;;;5092727;28;20083;-48
2022/10/22 06:21:13;;;;;;;19.38;7.90;;;12.10;99.90;;;;;;5094059;28;20032;-48
2022/10/22 06:23:40;;;;;;;16.10;8.10;;;12.10;99.90;;;;;;5093294;28;20134;-48
2022/10/22 06:26:07;;;;;;;15.73;8.50;;;12.40;99.90;;;;;;5093333;28;20071;-48
2022/10/22 06:28:34;;;;;;;13.85;8.13;;;12.40;99.90;;;;;;5092397;28;20085;-47
2022/10/22 06:31:00;;;;;;;15.38;8.18;;;12.10;99.90;;;;;;5093264;28;20110;-48
2022/10/22 06:33:27;;;;;;;16.20;8.30;;;12.50;99.90;;;;;;5093146;28;20399;-49
2022/10/22 06:35:53;;;;;;;15.93;6.55;;;12.20;99.90;;;;;;5091764;28;20048;-49
2022/10/22 06:38:19;;;;;;;14.98;7.65;;;12.10;99.90;;;;;;5092671;28;20039;-48
2022/10/22 06:40:44;;;;;;;14.13;7.78;;;12.10;99.90;;;;;;5072822;28;20072;-48
2022/10/22 06:43:11;;;;;;;15.82;8.15;;;12.60;99.90;;;;;;5071626;28;20079;-48
2022/10/22 06:45:37;;;;;;;14.77;7.63;;;12.20;99.90;;;;;;5072905;28;20048;-48
2022/10/22 06:48:03;;;;;;;14.75;7.32;;;12.50;99.90;;;;;;5072983;28;20045;-49
2022/10/22 06:50:29;;;;;;;12.95;7.85;;;12.60;99.90;;;;;;5075856;28;20479;-48
2022/10/22 06:52:55;;;;;;;16.27;7.75;;;12.50;99.90;;;;;;5091937;28;20047;-48
2022/10/22 06:55:20;;;;;;;16.52;7.43;;;12.70;99.90;;;;;;5092612;28;20044;-50
2022/10/22 06:57:46;;;;;;;17.08;8.23;;;12.50;99.90;;;;;;5092400;28;20173;-48
2022/10/22 07:00:12;;;;;;;13.98;7.95;;;12.70;99.90;;;;;;5091288;28;20169;-48
2022/10/22 07:02:38;;;;;;;18.23;7.97;;;12.50;99.90;;;;;;5092765;28;20044;-49
2022/10/22 07:05:04;;;;;;;17.65;7.72;;;12.60;99.90;;;;;;5092423;28;20448;-46
2022/10/22 07:07:30;;;;;;;14.98;8.88;;;12.60;99.90;;;;;;5091526;28;20039;-47
2022/10/22 07:09:55;;;;;;;17.65;8.77;;;12.90;99.90;;;;;;5091952;28;20469;-48
2022/10/22 07:12:21;;;;;;;17.98;8.70;;;12.60;99.90;;;;;;5091781;28;20043;-48
2022/10/22 07:14:48;;;;;;;14.70;8.43;;;12.90;99.90;;;;;;5091765;28;20036;-48
2022/10/22 07:17:13;;;;;;;16.92;7.43;;;13.00;99.90;;;;;;5091525;28;20040;-49
2022/10/22 07:19:39;;;;;;;13.77;7.88;;;12.50;99.90;;;;;;5091829;28;20067;-48
2022/10/22 07:22:05;;;;;;;15.85;8.23;;;12.90;99.90;;;;;;5090032;28;20068;-48
2022/10/22 07:24:31;;;;;;;19.60;9.15;;;12.60;99.90;;;;;;5092087;28;20052;-48
2022/10/22 07:26:57;;;;;;;14.10;7.82;;;12.80;99.90;;;;;;5092049;28;20054;-48
2022/10/22 07:29:22;;;;;;;18.00;8.23;;;12.70;99.90;;;;;;5092075;28;20067;-48
2022/10/22 07:31:48;;;;;;;20.60;7.93;;;13.10;99.90;;;;;;5091629;28;20380;-48
2022/10/22 07:34:14;;;;;;;16.98;8.27;;;12.80;99.90;;;;;;5091797;28;20043;-48
2022/10/22 07:36:39;;;;;;;14.00;7.72;;;12.60;99.90;;;;;;5090418;28;20097;-48
2022/10/22 07:39:05;;;;;;;14.40;7.57;;;12.70;99.90;;;;;;5084756;28;20040;-47
2022/10/22 07:41:31;;;;;;;16.88;8.02;;;13.10;99.90;;;;;;5071832;28;20124;-47
2022/10/22 07:43:57;;;;;;;13.60;8.60;;;13.20;99.90;;;;;;5071743;28;20047;-49
2022/10/22 07:46:23;;;;;;;16.35;7.97;;;13.30;99.90;;;;;;5071796;28;20059;-48
2022/10/22 07:48:49;;;;;;;13.85;7.50;;;12.80;99.90;;;;;;5071688;28;20082;-48
2022/10/22 07:51:15;;;;;;;13.27;7.90;;;12.90;99.90;;;;;;5071509;28;20749;-48
2022/10/22 07:53:41;;;;;;;15.32;7.93;;;13.30;99.90;;;;;;5074534;28;20470;-47
2022/10/22 07:56:07;;;;;;;16.20;6.97;;;13.50;99.90;;;;;;5085748;28;20036;-47
2022/10/22 07:58:33;;;;;;;14.70;7.47;;;13.00;99.90;;;;;;5091434;28;20381;-48
2022/10/22 08:01:00;;;;;;;15.00;7.55;;;13.40;99.90;;;;;;5091610;28;20054;-47
2022/10/22 08:03:27;;;;;;;15.75;7.90;;;13.40;99.90;;;;;;5091703;28;20040;-49
2022/10/22 08:05:53;;;;;;;13.82;7.50;;;13.10;99.90;;;;;;5091047;28;20185;-48
2022/10/22 08:08:20;;;;;;;15.88;6.55;;;13.50;99.90;;;;;;5091072;28;20134;-47
2022/10/22 08:10:47;;;;;;;17.35;7.20;;;13.60;99.90;;;;;;5091249;28;20477;-47
2022/10/22 08:13:13;;;;;;;14.88;7.78;;;13.60;99.90;;;;;;5091415;28;20638;-49
2022/10/22 08:15:41;;;;;;;16.70;7.25;;;13.10;99.90;;;;;;5091377;28;20088;-47
2022/10/22 08:18:08;;;;;;;17.27;8.18;;;13.10;99.90;;;;;;5091239;28;20055;-47
2022/10/22 08:20:34;;;;;;;11.55;5.43;;;13.10;99.90;;;;;;5091489;28;20127;-48
2022/10/22 08:22:59;;;;;;;11.40;6.25;;;13.60;99.90;;;;;;5091257;28;20185;-49
2022/10/22 08:25:26;;;;;;;18.42;7.47;;;13.30;99.90;;;;;;5091224;28;20043;-50
2022/10/22 08:27:51;;;;;;;16.63;6.85;;;13.80;99.90;;;;;;5091283;28;20050;-48
2022/10/22 08:30:18;;;;;;;17.67;6.25;;;13.40;99.90;;;;;;5091718;28;20044;-48
2022/10/22 08:32:43;;;;;;;14.45;7.10;;;13.90;99.90;;;;;;5091663;28;20522;-49
2022/10/22 08:35:09;;;;;;;16.08;6.63;;;13.50;99.90;;;;;;5094955;28;20044;-49
2022/10/22 08:37:35;;;;;;;13.55;6.85;;;13.50;99.90;;;;;;5095704;28;20047;-48
2022/10/22 08:40:01;;;;;;;17.15;7.60;;;13.60;99.90;;;;;;5087180;28;20483;-48
2022/10/22 08:42:32;;;;;;;16.20;7.28;;;13.70;99.90;;;;;;5085755;28;20155;-48
2022/10/22 08:45:21;;;;;;;18.80;6.93;;;13.90;99.90;;;;;;5080538;28;20048;-48
2022/10/22 08:48:09;;;;;;;16.88;6.63;;;13.90;99.90;;;;;;5092721;28;20040;-48
2022/10/22 08:50:39;;;;;;;14.98;6.20;;;14.50;99.90;;;;;;5095385;28;20028;-48
2022/10/22 08:53:11;;;;;;;16.65;6.05;;;14.20;99.90;;;;;;5090875;28;20023;-47
2022/10/22 08:55:38;;;;;;;11.20;5.60;;;14.60;99.90;;;;;;5095234;28;20094;-48
2022/10/22 08:58:17;;;;;;;13.93;6.45;;;14.20;99.90;;;;;;5076536;28;20392;-47
2022/10/22 09:01:10;;;;;;;21.42;8.10;;;14.80;99.90;;;;;;5094764;28;20169;-47
2022/10/22 09:03:53;;;;;;;11.80;5.68;;;14.90;99.90;;;;;;5095043;28;20032;-48
2022/10/22 09:06:21;;;;;;;12.45;5.53;;;14.80;99.90;;;;;;5094463;28;20040;-50
2022/10/22 09:08:47;;;;;;;12.40;5.55;;;14.60;99.90;;;;;;5093859;28;20040;-48
2022/10/22 09:11:21;;;;;;;13.57;5.18;;;14.80;99.90;;;;;;5084947;28;20044;-47
2022/10/22 09:13:47;;;;;;;13.25;6.25;;;14.90;99.90;;;;;;5075374;28;20044;-48
2022/10/22 09:16:34;;;;;;;15.95;5.97;;;15.00;99.90;;;;;;5093448;28;20108;-48
2022/10/22 09:19:40;;;;;;;15.13;4.97;;;14.90;99.90;;;;;;5093774;28;20052;-50
2022/10/22 09:22:31;;;;;;;14.98;5.00;;;15.30;99.90;;;;;;5094148;28;20054;-47
2022/10/22 09:25:12;;;;;;;12.80;4.53;;;14.90;99.90;;;;;;5095105;28;20040;-48
2022/10/22 09:27:38;;;;;;;9.32;4.53;;;15.40;99.90;;;;;;5083020;28;20059;-48
2022/10/22 09:30:04;;;;;;;13.90;5.35;;;15.10;99.90;;;;;;5074919;28;20485;-49
2022/10/22 09:32:32;;;;;;;15.02;4.70;;;15.10;99.90;;;;;;5077774;28;20033;-48
2022/10/22 09:34:58;;;;;;;15.75;4.68;;;15.50;99.90;;;;;;5088700;28;20569;-51
2022/10/22 09:37:27;;;;;;;17.48;5.25;;;15.40;99.90;;;;;;5094408;28;20033;-48
2022/10/22 09:39:55;;;;;;;9.68;4.28;;;15.20;99.90;;;;;;5086843;28;20032;-49
2022/10/22 09:42:21;;;;;;;14.38;4.65;;;15.10;99.90;;;;;;5083631;28;20039;-48
2022/10/22 09:44:53;;;;;;;14.55;4.70;;;15.50;99.90;;;;;;5089958;28;20071;-49
2022/10/22 09:47:40;;;;;;;12.68;4.80;;;15.40;99.90;;;;;;5087796;28;20047;-48
2022/10/22 09:50:27;;;;;;;14.00;4.82;;;15.50;99.90;;;;;;5074312;28;20130;-48
2022/10/22 09:53:04;;;;;;;12.40;4.93;;;15.50;99.90;;;;;;5088561;28;20044;-48
2022/10/22 09:55:31;;;;;;;12.88;4.72;;;15.50;99.90;;;;;;5093968;28;20211;-47
2022/10/22 09:57:59;;;;;;;12.85;5.60;;;15.20;99.90;;;;;;5094456;28;20036;-47
2022/10/22 10:00:26;;;;;;;13.30;4.65;;;15.50;99.90;;;;;;5092981;28;20075;-49
2022/10/22 10:02:57;;;;;;;11.65;4.75;;;15.60;99.90;;;;;;5094707;28;20036;-48
2022/10/22 10:05:31;;;;;;;18.52;5.03;;;15.30;99.90;;;;;;5088778;28;20032;-48
2022/10/22 10:07:58;;;;;;;15.13;4.78;;;15.40;99.90;;;;;;5073246;28;20072;-47
2022/10/22 10:10:45;;;;;;;15.63;5.80;;;15.50;99.90;;;;;;5074538;28;20033;-48
2022/10/22 10:13:25;;;;;;;17.27;4.78;;;15.50;99.90;;;;;;5074007;28;20040;-49
2022/10/22 10:16:04;;;;;;;12.52;4.35;;;15.30;99.90;;;;;;5073798;28;20106;-48
2022/10/22 10:18:55;;;;;;;13.75;4.68;;;15.60;99.90;;;;;;5085826;28;20059;-48
2022/10/22 10:21:21;;;;;;;12.38;4.78;;;15.70;99.90;;;;;;5092988;28;20070;-48
2022/10/22 10:24:02;;;;;;;17.50;5.10;;;15.70;99.90;;;;;;5093627;28;20126;-47
2022/10/22 10:26:51;;;;;;;12.98;4.93;;;15.70;99.90;;;;;;5075375;28;20123;-50
2022/10/22 10:29:22;;;;;;;13.32;5.50;;;15.80;99.90;;;;;;5082176;28;20040;-47
2022/10/22 10:32:19;;;;;;;13.27;5.47;;;16.00;99.90;;;;;;5094538;28;20051;-48
2022/10/22 10:34:50;;;;;;;14.18;5.05;;;15.90;99.90;;;;;;5093395;28;20046;-47
2022/10/22 10:37:40;;;;;;;14.77;6.07;;;15.60;99.90;;;;;;5094017;28;20044;-46
2022/10/22 10:40:20;;;;;;;11.50;5.10;;;15.60;99.90;;;;;;5078480;28;20040;-48
2022/10/22 10:43:12;;;;;;;18.52;5.72;;;15.60;99.90;;;;;;5092801;28;20071;-48
2022/10/22 10:46:06;;;;;;;15.15;5.60;;;15.80;99.90;;;;;;5091071;28;20156;-47
2022/10/22 10:48:54;;;;;;;12.55;4.85;;;15.70;99.90;;;;;;5093864;28;20051;-48
2022/10/22 10:51:34;;;;;;;12.20;5.35;;;15.50;99.90;;;;;;5093739;28;20036;-47
2022/10/22 10:54:20;;;;;;;15.68;5.70;;;15.60;99.90;;;;;;5093552;28;20040;-48
2022/10/22 10:57:11;;;;;;;11.90;5.32;;;15.50;99.90;;;;;;5093220;28;20373;-47
2022/10/22 10:59:58;;;;;;;12.73;5.65;;;15.50;99.90;;;;;;5092318;28;20028;-50
2022/10/22 11:02:43;;;;;;;15.18;4.90;;;15.70;99.90;;;;;;5092805;28;20115;-47
2022/10/22 11:05:33;;;;;;;8.98;5.18;;;15.60;99.90;;;;;;5092010;28;20189;-48
2022/10/22 11:08:12;;;;;;;9.98;4.82;;;15.70;99.90;;;;;;5084261;28;20374;-47
2022/10/22 11:10:47;;;;;;;15.25;5.00;;;16.00;99.90;;;;;;5072957;28;20044;-48
2022/10/22 11:13:35;;;;;;;10.25;3.88;;;16.00;99.90;;;;;;5090921;28;20097;-48
2022/10/22 11:16:21;;;;;;;11.38;3.55;;;16.10;99.90;;;;;;5093340;28;20044;-47
2022/10/22 11:18:57;;;;;;;7.47;4.32;;;15.90;99.90;;;;;;5092859;28;20056;-47
2022/10/22 11:21:22;;;;;;;12.73;4.45;;;16.20;99.90;;;;;;5093081;28;20040;-48
2022/10/22 11:23:59;;;;;;;10.00;4.10;;;16.00;99.90;;;;;;5088092;28;20050;-47
2022/10/22 11:26:55;;;;;;;8.77;4.20;;;16.10;99.90;;;;;;5090963;28;20070;-49
2022/10/22 11:29:26;;;;;;;13.52;4.60;;;16.60;99.90;;;;;;5089186;28;20044;-47
2022/10/22 11:31:53;;;;;;;9.10;4.55;;;16.50;99.90;;;;;;5072576;28;20040;-47
2022/10/22 11:34:40;;;;;;;9.48;4.72;;;16.60;99.90;;;;;;5080817;28;20062;-48
2022/10/22 11:37:06;;;;;;;11.23;5.40;;;16.20;99.90;;;;;;5092960;28;20119;-48
2022/10/22 11:39:47;;;;;;;12.15;5.88;;;16.20;99.90;;;;;;5081892;28;20170;-47
2022/10/22 11:42:21;;;;;;;13.05;6.50;;;16.20;99.90;;;;;;5072601;28;20404;-48
2022/10/22 11:45:01;;;;;;;12.07;5.97;;;15.90;99.90;;;;;;5072709;28;20065;-48
2022/10/22 11:47:32;;;;;;;14.63;7.00;;;16.10;99.90;;;;;;5088889;28;20404;-47
2022/10/22 11:50:16;;;;;;;15.70;6.97;;;16.00;99.90;;;;;;5092751;28;20040;-47
2022/10/22 11:52:54;;;;;;;12.60;6.03;;;15.80;99.90;;;;;;5092251;28;20553;-47
2022/10/22 11:55:50;;;;;;;13.48;6.55;;;15.80;99.90;;;;;;5092554;28;20085;-48
2022/10/22 11:58:27;;;;;;;14.20;7.10;;;15.30;99.90;;;;;;5073500;28;20051;-48
2022/10/22 12:01:13;;;;;;;13.05;7.40;;;15.70;99.90;;;;;;5085491;28;20479;-47
2022/10/22 12:04:16;;;;;;;15.85;7.70;;;15.30;99.90;;;;;;5091134;28;20051;-48
2022/10/22 12:06:50;;;;;;;;;;;15.40;99.90;;;;;;5086816;28;20051;-48
2022/10/22 12:09:18;;;;;;;11.73;6.35;;;15.50;99.90;;;;;;5090747;28;19922;-47
2022/10/22 12:11:49;;;;;;;13.18;6.68;;;15.70;99.90;;;;;;5089743;28;20028;-49
2022/10/22 12:14:28;;;;;;;13.45;6.57;;;15.80;99.90;;;;;;5091498;28;20388;-48
2022/10/22 12:16:58;;;;;;;14.65;6.57;;;15.60;99.90;;;;;;5090013;28;20038;-48
2022/10/22 12:19:43;;;;;;;11.25;5.93;;;15.40;99.90;;;;;;5090953;28;20039;-50
2022/10/22 12:22:09;;;;;;;13.38;6.22;;;15.30;99.90;;;;;;5091229;28;20064;-48
2022/10/22 12:24:39;;;;;;;11.77;6.55;;;15.50;99.90;;;;;;5091556;28;20032;-49
2022/10/22 12:27:26;;;;;;;15.77;6.95;;;15.50;99.90;;;;;;5091540;28;20071;-49
2022/10/22 12:30:00;;;;;;;17.40;7.00;;;15.30;99.90;;;;;;5089739;28;20459;-49
2022/10/22 12:32:39;;;;;;;16.65;6.93;;;15.30;99.90;;;;;;5090896;28;20063;-47
2022/10/22 12:35:10;;;;;;;17.55;7.13;;;15.30;99.90;;;;;;5091363;28;20044;-48
2022/10/22 12:37:37;;;;;;;16.33;7.22;;;15.40;99.90;;;;;;5091097;28;20040;-49
2022/10/22 12:40:20;;;;;;;12.73;6.45;;;15.30;99.90;;;;;;5090215;28;20082;-48
2022/10/22 12:42:57;;;;;;;14.73;5.65;;;15.30;99.90;;;;;;5091102;28;20028;-49
2022/10/22 12:45:31;;;;;;;13.73;5.55;;;15.30;99.90;;;;;;5091195;28;20081;-49
2022/10/22 12:48:03;;;;;;;13.73;5.30;;;15.80;99.90;;;;;;5090837;28;20123;-48
2022/10/22 12:50:34;;;;;;;15.52;4.65;;;15.90;99.90;;;;;;5090702;28;20067;-49
2022/10/22 12:52:59;;;;;;;9.60;3.65;;;15.90;99.90;;;;;;5091784;28;20044;-48
2022/10/22 12:55:25;;;;;;;11.27;2.92;;;15.70;99.90;;;;;;5086537;28;20043;-47